sensor_id;sensor_type;location;lat;lon;timestamp;P1;durP1;ratioP1;P2;durP2;ratioP2
19231;SDS011;9750;48.730;10.294;2023-07-09T00:01:43;5.72;;;3.90;;
19231;SDS011;9750;48.730;10.294;2023-07-09T00:04:10;7.70;;;4.10;;
19231;SDS011;9750;48.730;10.294;2023-07-09T00:06:38;6.40;;;4.22;;
19231;SDS011;9750;48.730;10.294;2023-07-09T00:09:08;6.13;;;4.28;;
19231;SDS011;9750;48.730;10.294;2023-07-09T00:11:40;5.85;;;5.15;;
19231;SDS011;9750;48.730;10.294;2023-07-09T00:14:08;6.78;;;4.85;;
19231;SDS011;9750;48.730;10.294;2023-07-09T00:16:36;5.78;;;5.00;;
19231;SDS011;9750;48.730;10.294;2023-07-09T00:19:04;7.32;;;4.78;;
19231;SDS011;9750;48.730;10.294;2023-07-09T00:21:32;7.63;;;5.38;;
19231;SDS011;9750;48.730;10.294;2023-07-09T00:24:00;6.25;;;4.57;;
19231;SDS011;9750;48.730;10.294;2023-07-09T00:26:31;6.30;;;4.78;;
19231;SDS011;9750;48.730;10.294;2023-07-09T00:28:59;5.95;;;5.30;;
19231;SDS011;9750;48.730;10.294;2023-07-09T00:31:26;6.75;;;4.70;;
19231;SDS011;9750;48.730;10.294;2023-07-09T00:33:53;5.80;;;4.65;;
19231;SDS011;9750;48.730;10.294;2023-07-09T00:36:25;8.75;;;4.53;;
19231;SDS011;9750;48.730;10.294;2023-07-09T00:38:55;5.15;;;4.18;;
19231;SDS011;9750;48.730;10.294;2023-07-09T00:41:33;6.20;;;4.28;;
19231;SDS011;9750;48.730;10.294;2023-07-09T00:44:13;6.57;;;4.13;;
19231;SDS011;9750;48.730;10.294;2023-07-09T00:49:42;4.40;;;3.60;;
19231;SDS011;9750;48.730;10.294;2023-07-09T00:52:16;6.63;;;4.15;;
19231;SDS011;9750;48.730;10.294;2023-07-09T00:54:50;5.53;;;4.03;;
19231;SDS011;9750;48.730;10.294;2023-07-09T00:57:21;5.43;;;4.18;;
19231;SDS011;9750;48.730;10.294;2023-07-09T00:59:51;5.25;;;4.20;;
19231;SDS011;9750;48.730;10.294;2023-07-09T01:02:23;6.53;;;4.63;;
19231;SDS011;9750;48.730;10.294;2023-07-09T01:04:51;4.45;;;3.83;;
19231;SDS011;9750;48.730;10.294;2023-07-09T01:07:25;5.47;;;4.45;;
19231;SDS011;9750;48.730;10.294;2023-07-09T01:09:53;5.93;;;4.10;;
19231;SDS011;9750;48.730;10.294;2023-07-09T01:12:22;4.03;;;3.63;;
19231;SDS011;9750;48.730;10.294;2023-07-09T01:14:51;5.18;;;4.05;;
19231;SDS011;9750;48.730;10.294;2023-07-09T01:17:24;4.45;;;4.00;;
19231;SDS011;9750;48.730;10.294;2023-07-09T01:19:53;5.25;;;3.92;;
19231;SDS011;9750;48.730;10.294;2023-07-09T01:22:23;4.25;;;3.78;;
19231;SDS011;9750;48.730;10.294;2023-07-09T01:24:54;4.75;;;3.90;;
19231;SDS011;9750;48.730;10.294;2023-07-09T01:27:28;5.22;;;4.43;;
19231;SDS011;9750;48.730;10.294;2023-07-09T01:29:58;6.00;;;4.32;;
19231;SDS011;9750;48.730;10.294;2023-07-09T01:32:27;4.38;;;3.90;;
19231;SDS011;9750;48.730;10.294;2023-07-09T01:34:58;6.65;;;4.38;;
19231;SDS011;9750;48.730;10.294;2023-07-09T01:37:32;4.60;;;4.13;;
19231;SDS011;9750;48.730;10.294;2023-07-09T01:40:00;5.68;;;3.85;;
19231;SDS011;9750;48.730;10.294;2023-07-09T01:42:30;5.85;;;4.43;;
19231;SDS011;9750;48.730;10.294;2023-07-09T01:44:57;5.30;;;4.32;;
19231;SDS011;9750;48.730;10.294;2023-07-09T01:47:26;5.90;;;5.13;;
19231;SDS011;9750;48.730;10.294;2023-07-09T01:49:54;5.50;;;4.38;;
19231;SDS011;9750;48.730;10.294;2023-07-09T01:52:22;5.73;;;4.87;;
19231;SDS011;9750;48.730;10.294;2023-07-09T01:54:53;5.00;;;4.50;;
19231;SDS011;9750;48.730;10.294;2023-07-09T01:57:21;6.15;;;5.00;;
19231;SDS011;9750;48.730;10.294;2023-07-09T01:59:50;5.90;;;4.90;;
19231;SDS011;9750;48.730;10.294;2023-07-09T02:02:18;4.70;;;4.20;;
19231;SDS011;9750;48.730;10.294;2023-07-09T02:04:46;5.03;;;3.90;;
19231;SDS011;9750;48.730;10.294;2023-07-09T02:07:13;5.80;;;4.15;;
19231;SDS011;9750;48.730;10.294;2023-07-09T02:09:41;4.53;;;4.07;;
19231;SDS011;9750;48.730;10.294;2023-07-09T02:12:10;4.55;;;3.75;;
19231;SDS011;9750;48.730;10.294;2023-07-09T02:14:39;4.78;;;4.25;;
19231;SDS011;9750;48.730;10.294;2023-07-09T02:19:51;4.97;;;3.78;;
19231;SDS011;9750;48.730;10.294;2023-07-09T02:22:18;6.07;;;4.25;;
19231;SDS011;9750;48.730;10.294;2023-07-09T02:24:45;6.53;;;4.22;;
19231;SDS011;9750;48.730;10.294;2023-07-09T02:27:15;6.38;;;4.40;;
19231;SDS011;9750;48.730;10.294;2023-07-09T02:29:43;5.75;;;5.03;;
19231;SDS011;9750;48.730;10.294;2023-07-09T02:32:13;5.70;;;4.80;;
19231;SDS011;9750;48.730;10.294;2023-07-09T02:34:45;6.33;;;4.87;;
19231;SDS011;9750;48.730;10.294;2023-07-09T02:37:14;5.27;;;4.77;;
19231;SDS011;9750;48.730;10.294;2023-07-09T02:39:44;6.53;;;4.80;;
19231;SDS011;9750;48.730;10.294;2023-07-09T02:42:11;6.23;;;4.77;;
19231;SDS011;9750;48.730;10.294;2023-07-09T02:44:41;5.77;;;5.17;;
19231;SDS011;9750;48.730;10.294;2023-07-09T02:47:09;8.97;;;5.20;;
19231;SDS011;9750;48.730;10.294;2023-07-09T02:49:40;7.25;;;5.25;;
19231;SDS011;9750;48.730;10.294;2023-07-09T02:52:07;5.30;;;4.27;;
19231;SDS011;9750;48.730;10.294;2023-07-09T02:54:35;8.00;;;6.10;;
19231;SDS011;9750;48.730;10.294;2023-07-09T02:57:02;7.40;;;5.93;;
19231;SDS011;9750;48.730;10.294;2023-07-09T02:59:30;8.43;;;5.87;;
19231;SDS011;9750;48.730;10.294;2023-07-09T03:01:59;7.20;;;5.73;;
19231;SDS011;9750;48.730;10.294;2023-07-09T03:04:27;6.20;;;5.43;;
19231;SDS011;9750;48.730;10.294;2023-07-09T03:06:54;7.03;;;5.33;;
19231;SDS011;9750;48.730;10.294;2023-07-09T03:09:21;8.03;;;5.17;;
19231;SDS011;9750;48.730;10.294;2023-07-09T03:11:49;8.00;;;6.17;;
19231;SDS011;9750;48.730;10.294;2023-07-09T03:14:16;9.43;;;5.93;;
19231;SDS011;9750;48.730;10.294;2023-07-09T03:16:44;7.80;;;5.37;;
19231;SDS011;9750;48.730;10.294;2023-07-09T03:19:12;7.60;;;5.10;;
19231;SDS011;9750;48.730;10.294;2023-07-09T03:21:39;7.50;;;5.40;;
19231;SDS011;9750;48.730;10.294;2023-07-09T03:24:07;6.13;;;5.40;;
19231;SDS011;9750;48.730;10.294;2023-07-09T03:26:34;8.23;;;5.90;;
19231;SDS011;9750;48.730;10.294;2023-07-09T03:29:02;8.07;;;5.50;;
19231;SDS011;9750;48.730;10.294;2023-07-09T03:31:29;5.93;;;5.33;;
19231;SDS011;9750;48.730;10.294;2023-07-09T03:34:00;6.60;;;5.40;;
19231;SDS011;9750;48.730;10.294;2023-07-09T03:36:29;7.73;;;5.50;;
19231;SDS011;9750;48.730;10.294;2023-07-09T03:38:57;8.70;;;5.70;;
19231;SDS011;9750;48.730;10.294;2023-07-09T03:41:24;9.47;;;5.27;;
19231;SDS011;9750;48.730;10.294;2023-07-09T03:43:51;6.00;;;5.27;;
19231;SDS011;9750;48.730;10.294;2023-07-09T03:48:51;6.10;;;4.90;;
19231;SDS011;9750;48.730;10.294;2023-07-09T03:51:18;7.03;;;5.40;;
19231;SDS011;9750;48.730;10.294;2023-07-09T03:53:47;6.93;;;5.27;;
19231;SDS011;9750;48.730;10.294;2023-07-09T03:56:14;6.03;;;5.10;;
19231;SDS011;9750;48.730;10.294;2023-07-09T03:58:41;7.97;;;5.50;;
19231;SDS011;9750;48.730;10.294;2023-07-09T04:01:08;6.63;;;5.00;;
19231;SDS011;9750;48.730;10.294;2023-07-09T04:03:36;4.97;;;4.40;;
19231;SDS011;9750;48.730;10.294;2023-07-09T04:06:03;6.20;;;4.47;;
19231;SDS011;9750;48.730;10.294;2023-07-09T04:08:30;6.30;;;5.27;;
19231;SDS011;9750;48.730;10.294;2023-07-09T04:11:00;6.90;;;5.03;;
19231;SDS011;9750;48.730;10.294;2023-07-09T04:13:28;7.37;;;5.23;;
19231;SDS011;9750;48.730;10.294;2023-07-09T04:15:56;8.27;;;5.00;;
19231;SDS011;9750;48.730;10.294;2023-07-09T04:18:24;5.37;;;4.63;;
19231;SDS011;9750;48.730;10.294;2023-07-09T04:20:51;6.10;;;4.67;;
19231;SDS011;9750;48.730;10.294;2023-07-09T04:23:18;5.87;;;4.97;;
19231;SDS011;9750;48.730;10.294;2023-07-09T04:25:46;5.37;;;4.87;;
19231;SDS011;9750;48.730;10.294;2023-07-09T04:28:15;6.33;;;5.07;;
19231;SDS011;9750;48.730;10.294;2023-07-09T04:30:46;7.23;;;4.87;;
19231;SDS011;9750;48.730;10.294;2023-07-09T04:33:14;8.70;;;5.37;;
19231;SDS011;9750;48.730;10.294;2023-07-09T04:35:43;6.63;;;5.10;;
19231;SDS011;9750;48.730;10.294;2023-07-09T04:38:11;7.13;;;5.13;;
19231;SDS011;9750;48.730;10.294;2023-07-09T04:40:38;6.07;;;5.20;;
19231;SDS011;9750;48.730;10.294;2023-07-09T04:43:05;7.07;;;5.57;;
19231;SDS011;9750;48.730;10.294;2023-07-09T04:45:34;7.53;;;5.70;;
19231;SDS011;9750;48.730;10.294;2023-07-09T04:48:02;7.97;;;5.10;;
19231;SDS011;9750;48.730;10.294;2023-07-09T04:50:29;7.23;;;5.10;;
19231;SDS011;9750;48.730;10.294;2023-07-09T04:52:56;6.20;;;5.20;;
19231;SDS011;9750;48.730;10.294;2023-07-09T04:55:24;7.40;;;6.27;;
19231;SDS011;9750;48.730;10.294;2023-07-09T04:57:52;7.73;;;6.17;;
19231;SDS011;9750;48.730;10.294;2023-07-09T05:00:19;8.43;;;6.67;;
19231;SDS011;9750;48.730;10.294;2023-07-09T05:02:48;7.37;;;6.07;;
19231;SDS011;9750;48.730;10.294;2023-07-09T05:05:15;6.60;;;5.90;;
19231;SDS011;9750;48.730;10.294;2023-07-09T05:07:42;7.73;;;6.90;;
19231;SDS011;9750;48.730;10.294;2023-07-09T05:10:10;8.00;;;6.03;;
19231;SDS011;9750;48.730;10.294;2023-07-09T05:12:46;6.67;;;5.87;;
19231;SDS011;9750;48.730;10.294;2023-07-09T05:15:15;8.43;;;5.83;;
19231;SDS011;9750;48.730;10.294;2023-07-09T05:17:43;10.47;;;6.43;;
19231;SDS011;9750;48.730;10.294;2023-07-09T05:20:12;7.90;;;6.50;;
19231;SDS011;9750;48.730;10.294;2023-07-09T05:22:40;8.23;;;6.20;;
19231;SDS011;9750;48.730;10.294;2023-07-09T05:25:07;7.38;;;6.03;;
19231;SDS011;9750;48.730;10.294;2023-07-09T05:27:35;7.00;;;5.90;;
19231;SDS011;9750;48.730;10.294;2023-07-09T05:30:02;7.47;;;5.83;;
19231;SDS011;9750;48.730;10.294;2023-07-09T05:32:30;7.22;;;5.80;;
19231;SDS011;9750;48.730;10.294;2023-07-09T05:34:57;7.82;;;5.95;;
19231;SDS011;9750;48.730;10.294;2023-07-09T05:37:26;8.85;;;6.13;;
19231;SDS011;9750;48.730;10.294;2023-07-09T05:39:53;8.07;;;5.38;;
19231;SDS011;9750;48.730;10.294;2023-07-09T05:42:21;7.97;;;5.77;;
19231;SDS011;9750;48.730;10.294;2023-07-09T05:44:48;8.02;;;5.72;;
19231;SDS011;9750;48.730;10.294;2023-07-09T05:47:15;7.22;;;5.97;;
19231;SDS011;9750;48.730;10.294;2023-07-09T05:49:43;6.70;;;5.60;;
19231;SDS011;9750;48.730;10.294;2023-07-09T05:52:14;6.95;;;5.53;;
19231;SDS011;9750;48.730;10.294;2023-07-09T05:54:43;8.27;;;5.78;;
19231;SDS011;9750;48.730;10.294;2023-07-09T05:57:11;7.53;;;5.70;;
19231;SDS011;9750;48.730;10.294;2023-07-09T05:59:38;7.75;;;5.63;;
19231;SDS011;9750;48.730;10.294;2023-07-09T06:02:07;6.13;;;4.80;;
19231;SDS011;9750;48.730;10.294;2023-07-09T06:04:36;6.55;;;5.53;;
19231;SDS011;9750;48.730;10.294;2023-07-09T06:07:04;8.70;;;5.43;;
19231;SDS011;9750;48.730;10.294;2023-07-09T06:09:31;6.75;;;5.20;;
19231;SDS011;9750;48.730;10.294;2023-07-09T06:12:00;6.60;;;5.03;;
19231;SDS011;9750;48.730;10.294;2023-07-09T06:14:27;7.68;;;5.43;;
19231;SDS011;9750;48.730;10.294;2023-07-09T06:16:54;6.85;;;5.43;;
19231;SDS011;9750;48.730;10.294;2023-07-09T06:19:21;6.38;;;5.30;;
19231;SDS011;9750;48.730;10.294;2023-07-09T06:21:49;5.85;;;5.30;;
19231;SDS011;9750;48.730;10.294;2023-07-09T06:24:16;6.18;;;4.97;;
19231;SDS011;9750;48.730;10.294;2023-07-09T06:26:43;7.05;;;5.60;;
19231;SDS011;9750;48.730;10.294;2023-07-09T06:29:12;7.22;;;5.63;;
19231;SDS011;9750;48.730;10.294;2023-07-09T06:31:39;6.35;;;4.90;;
19231;SDS011;9750;48.730;10.294;2023-07-09T06:34:07;6.40;;;5.30;;
19231;SDS011;9750;48.730;10.294;2023-07-09T06:36:35;5.45;;;4.95;;
19231;SDS011;9750;48.730;10.294;2023-07-09T06:39:02;6.72;;;5.22;;
19231;SDS011;9750;48.730;10.294;2023-07-09T06:41:30;6.15;;;5.03;;
19231;SDS011;9750;48.730;10.294;2023-07-09T06:44:04;7.13;;;5.60;;
19231;SDS011;9750;48.730;10.294;2023-07-09T06:46:33;5.90;;;5.03;;
19231;SDS011;9750;48.730;10.294;2023-07-09T06:49:00;6.20;;;5.53;;
19231;SDS011;9750;48.730;10.294;2023-07-09T06:51:28;6.70;;;5.72;;
19231;SDS011;9750;48.730;10.294;2023-07-09T06:53:55;6.72;;;6.05;;
19231;SDS011;9750;48.730;10.294;2023-07-09T06:56:23;7.03;;;6.07;;
19231;SDS011;9750;48.730;10.294;2023-07-09T06:58:50;8.32;;;5.43;;
19231;SDS011;9750;48.730;10.294;2023-07-09T07:01:17;8.35;;;5.38;;
19231;SDS011;9750;48.730;10.294;2023-07-09T07:03:46;6.32;;;5.30;;
19231;SDS011;9750;48.730;10.294;2023-07-09T07:06:14;6.15;;;5.30;;
19231;SDS011;9750;48.730;10.294;2023-07-09T07:08:41;6.40;;;4.60;;
19231;SDS011;9750;48.730;10.294;2023-07-09T07:11:08;5.43;;;4.93;;
19231;SDS011;9750;48.730;10.294;2023-07-09T07:13:36;9.75;;;4.50;;
19231;SDS011;9750;48.730;10.294;2023-07-09T07:16:05;5.80;;;4.15;;
19231;SDS011;9750;48.730;10.294;2023-07-09T07:18:33;6.32;;;4.25;;
19231;SDS011;9750;48.730;10.294;2023-07-09T07:21:02;5.97;;;4.45;;
19231;SDS011;9750;48.730;10.294;2023-07-09T07:23:30;6.88;;;4.55;;
19231;SDS011;9750;48.730;10.294;2023-07-09T07:25:57;6.38;;;4.90;;
19231;SDS011;9750;48.730;10.294;2023-07-09T07:28:24;7.32;;;4.35;;
19231;SDS011;9750;48.730;10.294;2023-07-09T07:30:58;5.57;;;4.55;;
19231;SDS011;9750;48.730;10.294;2023-07-09T07:33:26;4.63;;;4.03;;
19231;SDS011;9750;48.730;10.294;2023-07-09T07:35:53;6.40;;;4.65;;
19231;SDS011;9750;48.730;10.294;2023-07-09T07:38:25;6.97;;;4.68;;
19231;SDS011;9750;48.730;10.294;2023-07-09T07:40:52;6.63;;;4.60;;
19231;SDS011;9750;48.730;10.294;2023-07-09T07:43:20;5.75;;;4.57;;
19231;SDS011;9750;48.730;10.294;2023-07-09T07:45:47;6.38;;;4.80;;
19231;SDS011;9750;48.730;10.294;2023-07-09T07:48:14;6.93;;;4.55;;
19231;SDS011;9750;48.730;10.294;2023-07-09T07:50:41;5.18;;;4.50;;
19231;SDS011;9750;48.730;10.294;2023-07-09T07:53:11;7.68;;;4.78;;
19231;SDS011;9750;48.730;10.294;2023-07-09T07:55:40;6.00;;;4.60;;
19231;SDS011;9750;48.730;10.294;2023-07-09T08:01:01;4.70;;;4.28;;
19231;SDS011;9750;48.730;10.294;2023-07-09T08:03:28;6.57;;;4.40;;
19231;SDS011;9750;48.730;10.294;2023-07-09T08:05:55;4.95;;;4.38;;
19231;SDS011;9750;48.730;10.294;2023-07-09T08:08:22;6.07;;;3.90;;
19231;SDS011;9750;48.730;10.294;2023-07-09T08:10:51;7.65;;;4.72;;
19231;SDS011;9750;48.730;10.294;2023-07-09T08:13:26;4.65;;;3.97;;
19231;SDS011;9750;48.730;10.294;2023-07-09T08:15:53;4.78;;;4.25;;
19231;SDS011;9750;48.730;10.294;2023-07-09T08:18:20;6.35;;;4.38;;
19231;SDS011;9750;48.730;10.294;2023-07-09T08:20:47;5.80;;;4.38;;
19231;SDS011;9750;48.730;10.294;2023-07-09T08:23:14;5.88;;;4.70;;
19231;SDS011;9750;48.730;10.294;2023-07-09T08:25:42;6.40;;;4.50;;
19231;SDS011;9750;48.730;10.294;2023-07-09T08:28:10;6.25;;;4.00;;
19231;SDS011;9750;48.730;10.294;2023-07-09T08:30:38;5.55;;;4.38;;
19231;SDS011;9750;48.730;10.294;2023-07-09T08:33:05;5.25;;;4.00;;
19231;SDS011;9750;48.730;10.294;2023-07-09T08:35:32;4.47;;;3.83;;
19231;SDS011;9750;48.730;10.294;2023-07-09T08:37:59;6.47;;;4.50;;
19231;SDS011;9750;48.730;10.294;2023-07-09T08:40:27;5.15;;;4.65;;
19231;SDS011;9750;48.730;10.294;2023-07-09T08:42:56;4.38;;;3.83;;
19231;SDS011;9750;48.730;10.294;2023-07-09T08:45:36;4.57;;;3.83;;
19231;SDS011;9750;48.730;10.294;2023-07-09T08:48:14;5.63;;;4.30;;
19231;SDS011;9750;48.730;10.294;2023-07-09T08:50:47;4.90;;;3.97;;
19231;SDS011;9750;48.730;10.294;2023-07-09T08:53:18;4.28;;;3.88;;
19231;SDS011;9750;48.730;10.294;2023-07-09T08:55:48;4.10;;;3.20;;
19231;SDS011;9750;48.730;10.294;2023-07-09T08:58:20;7.32;;;4.03;;
19231;SDS011;9750;48.730;10.294;2023-07-09T09:00:52;5.57;;;4.00;;
19231;SDS011;9750;48.730;10.294;2023-07-09T09:03:26;4.10;;;3.70;;
19231;SDS011;9750;48.730;10.294;2023-07-09T09:05:59;5.60;;;4.25;;
19231;SDS011;9750;48.730;10.294;2023-07-09T09:08:33;5.13;;;4.00;;
19231;SDS011;9750;48.730;10.294;2023-07-09T09:11:07;4.18;;;3.72;;
19231;SDS011;9750;48.730;10.294;2023-07-09T09:13:40;4.57;;;3.70;;
19231;SDS011;9750;48.730;10.294;2023-07-09T09:16:11;3.72;;;3.35;;
19231;SDS011;9750;48.730;10.294;2023-07-09T09:18:48;4.88;;;3.88;;
19231;SDS011;9750;48.730;10.294;2023-07-09T09:21:21;5.18;;;4.15;;
19231;SDS011;9750;48.730;10.294;2023-07-09T09:23:50;4.53;;;3.90;;
19231;SDS011;9750;48.730;10.294;2023-07-09T09:26:21;5.60;;;4.25;;
19231;SDS011;9750;48.730;10.294;2023-07-09T09:28:51;7.32;;;4.25;;
19231;SDS011;9750;48.730;10.294;2023-07-09T09:31:21;5.05;;;4.22;;
19231;SDS011;9750;48.730;10.294;2023-07-09T09:33:50;5.85;;;4.10;;
19231;SDS011;9750;48.730;10.294;2023-07-09T09:36:19;5.18;;;4.05;;
19231;SDS011;9750;48.730;10.294;2023-07-09T09:38:47;5.75;;;4.20;;
19231;SDS011;9750;48.730;10.294;2023-07-09T09:41:16;5.03;;;3.72;;
19231;SDS011;9750;48.730;10.294;2023-07-09T09:43:46;5.18;;;4.32;;
19231;SDS011;9750;48.730;10.294;2023-07-09T09:46:16;4.72;;;4.30;;
19231;SDS011;9750;48.730;10.294;2023-07-09T09:48:47;6.53;;;4.30;;
19231;SDS011;9750;48.730;10.294;2023-07-09T09:51:15;5.13;;;3.80;;
19231;SDS011;9750;48.730;10.294;2023-07-09T09:53:45;5.65;;;4.05;;
19231;SDS011;9750;48.730;10.294;2023-07-09T09:56:17;4.82;;;4.30;;
19231;SDS011;9750;48.730;10.294;2023-07-09T09:58:46;4.75;;;4.32;;
19231;SDS011;9750;48.730;10.294;2023-07-09T10:01:18;8.18;;;4.55;;
19231;SDS011;9750;48.730;10.294;2023-07-09T10:03:51;5.40;;;4.45;;
19231;SDS011;9750;48.730;10.294;2023-07-09T10:06:23;5.95;;;4.53;;
19231;SDS011;9750;48.730;10.294;2023-07-09T10:09:00;4.57;;;3.92;;
19231;SDS011;9750;48.730;10.294;2023-07-09T10:11:36;5.60;;;4.57;;
19231;SDS011;9750;48.730;10.294;2023-07-09T10:14:14;6.13;;;4.32;;
19231;SDS011;9750;48.730;10.294;2023-07-09T10:16:53;5.65;;;5.05;;
19231;SDS011;9750;48.730;10.294;2023-07-09T10:19:29;5.65;;;4.78;;
19231;SDS011;9750;48.730;10.294;2023-07-09T10:22:03;6.07;;;4.55;;
19231;SDS011;9750;48.730;10.294;2023-07-09T10:24:35;6.05;;;4.57;;
19231;SDS011;9750;48.730;10.294;2023-07-09T10:27:12;5.72;;;4.53;;
19231;SDS011;9750;48.730;10.294;2023-07-09T10:29:50;4.82;;;4.32;;
19231;SDS011;9750;48.730;10.294;2023-07-09T10:32:42;6.40;;;4.38;;
19231;SDS011;9750;48.730;10.294;2023-07-09T10:35:22;4.88;;;4.00;;
19231;SDS011;9750;48.730;10.294;2023-07-09T10:38:04;5.45;;;4.25;;
19231;SDS011;9750;48.730;10.294;2023-07-09T10:40:43;6.30;;;4.18;;
19231;SDS011;9750;48.730;10.294;2023-07-09T10:43:14;5.57;;;4.35;;
19231;SDS011;9750;48.730;10.294;2023-07-09T10:45:45;5.85;;;4.38;;
19231;SDS011;9750;48.730;10.294;2023-07-09T10:48:16;5.78;;;4.15;;
19231;SDS011;9750;48.730;10.294;2023-07-09T10:50:47;6.72;;;4.38;;
19231;SDS011;9750;48.730;10.294;2023-07-09T10:53:23;7.28;;;4.18;;
19231;SDS011;9750;48.730;10.294;2023-07-09T10:55:56;4.78;;;4.35;;
19231;SDS011;9750;48.730;10.294;2023-07-09T10:58:30;4.97;;;4.07;;
19231;SDS011;9750;48.730;10.294;2023-07-09T11:01:01;5.18;;;4.20;;
19231;SDS011;9750;48.730;10.294;2023-07-09T11:03:33;6.35;;;4.43;;
19231;SDS011;9750;48.730;10.294;2023-07-09T11:06:20;4.90;;;4.22;;
19231;SDS011;9750;48.730;10.294;2023-07-09T11:08:58;4.82;;;4.00;;
19231;SDS011;9750;48.730;10.294;2023-07-09T11:11:30;6.10;;;4.13;;
19231;SDS011;9750;48.730;10.294;2023-07-09T11:14:00;7.80;;;4.65;;
19231;SDS011;9750;48.730;10.294;2023-07-09T11:16:36;4.60;;;4.20;;
19231;SDS011;9750;48.730;10.294;2023-07-09T11:19:06;5.57;;;4.20;;
19231;SDS011;9750;48.730;10.294;2023-07-09T11:21:55;5.15;;;3.65;;
19231;SDS011;9750;48.730;10.294;2023-07-09T11:24:29;5.70;;;4.22;;
19231;SDS011;9750;48.730;10.294;2023-07-09T11:26:58;4.55;;;3.90;;
19231;SDS011;9750;48.730;10.294;2023-07-09T11:29:26;5.03;;;3.55;;
19231;SDS011;9750;48.730;10.294;2023-07-09T11:31:54;6.90;;;3.92;;
19231;SDS011;9750;48.730;10.294;2023-07-09T11:34:27;7.35;;;4.53;;
19231;SDS011;9750;48.730;10.294;2023-07-09T11:36:58;6.50;;;4.07;;
19231;SDS011;9750;48.730;10.294;2023-07-09T11:39:28;6.32;;;3.88;;
19231;SDS011;9750;48.730;10.294;2023-07-09T11:41:57;6.80;;;4.32;;
19231;SDS011;9750;48.730;10.294;2023-07-09T11:44:25;5.93;;;3.90;;
19231;SDS011;9750;48.730;10.294;2023-07-09T11:46:59;6.22;;;4.50;;
19231;SDS011;9750;48.730;10.294;2023-07-09T11:49:49;5.00;;;4.10;;
19231;SDS011;9750;48.730;10.294;2023-07-09T11:52:24;4.80;;;4.07;;
19231;SDS011;9750;48.730;10.294;2023-07-09T11:54:54;5.30;;;4.15;;
19231;SDS011;9750;48.730;10.294;2023-07-09T11:57:22;5.75;;;4.45;;
19231;SDS011;9750;48.730;10.294;2023-07-09T11:59:49;4.63;;;3.85;;
19231;SDS011;9750;48.730;10.294;2023-07-09T12:02:17;7.05;;;4.30;;
19231;SDS011;9750;48.730;10.294;2023-07-09T12:04:47;4.30;;;3.80;;
19231;SDS011;9750;48.730;10.294;2023-07-09T12:07:16;5.82;;;4.60;;
19231;SDS011;9750;48.730;10.294;2023-07-09T12:09:48;5.32;;;3.97;;
19231;SDS011;9750;48.730;10.294;2023-07-09T12:12:17;5.78;;;4.20;;
19231;SDS011;9750;48.730;10.294;2023-07-09T12:14:46;6.80;;;4.25;;
19231;SDS011;9750;48.730;10.294;2023-07-09T12:20:36;5.35;;;4.32;;
19231;SDS011;9750;48.730;10.294;2023-07-09T12:23:10;5.15;;;4.13;;
19231;SDS011;9750;48.730;10.294;2023-07-09T12:25:48;6.18;;;4.20;;
19231;SDS011;9750;48.730;10.294;2023-07-09T12:31:39;5.90;;;4.25;;
19231;SDS011;9750;48.730;10.294;2023-07-09T12:34:10;5.75;;;4.47;;
19231;SDS011;9750;48.730;10.294;2023-07-09T12:36:40;5.63;;;4.28;;
19231;SDS011;9750;48.730;10.294;2023-07-09T12:39:10;6.70;;;3.78;;
19231;SDS011;9750;48.730;10.294;2023-07-09T12:41:41;6.65;;;4.35;;
19231;SDS011;9750;48.730;10.294;2023-07-09T12:44:14;4.95;;;4.18;;
19231;SDS011;9750;48.730;10.294;2023-07-09T12:46:43;4.80;;;4.30;;
19231;SDS011;9750;48.730;10.294;2023-07-09T12:49:18;4.90;;;4.15;;
19231;SDS011;9750;48.730;10.294;2023-07-09T12:51:48;7.47;;;4.10;;
19231;SDS011;9750;48.730;10.294;2023-07-09T12:54:17;5.80;;;4.18;;
19231;SDS011;9750;48.730;10.294;2023-07-09T12:56:49;4.95;;;4.20;;
19231;SDS011;9750;48.730;10.294;2023-07-09T12:59:19;4.78;;;4.03;;
19231;SDS011;9750;48.730;10.294;2023-07-09T13:01:48;5.18;;;4.03;;
19231;SDS011;9750;48.730;10.294;2023-07-09T13:04:18;6.55;;;4.18;;
19231;SDS011;9750;48.730;10.294;2023-07-09T13:06:45;5.28;;;4.32;;
19231;SDS011;9750;48.730;10.294;2023-07-09T13:09:15;8.25;;;4.53;;
19231;SDS011;9750;48.730;10.294;2023-07-09T13:11:48;5.53;;;4.57;;
19231;SDS011;9750;48.730;10.294;2023-07-09T13:14:19;5.45;;;3.75;;
19231;SDS011;9750;48.730;10.294;2023-07-09T13:16:48;6.78;;;4.40;;
19231;SDS011;9750;48.730;10.294;2023-07-09T13:19:16;16.17;;;4.97;;
19231;SDS011;9750;48.730;10.294;2023-07-09T13:21:44;6.25;;;4.70;;
19231;SDS011;9750;48.730;10.294;2023-07-09T13:24:17;6.60;;;4.07;;
19231;SDS011;9750;48.730;10.294;2023-07-09T13:26:51;6.13;;;4.13;;
19231;SDS011;9750;48.730;10.294;2023-07-09T13:29:18;5.88;;;4.32;;
19231;SDS011;9750;48.730;10.294;2023-07-09T13:31:46;4.50;;;4.00;;
19231;SDS011;9750;48.730;10.294;2023-07-09T13:34:18;5.18;;;4.20;;
19231;SDS011;9750;48.730;10.294;2023-07-09T13:36:47;6.50;;;4.20;;
19231;SDS011;9750;48.730;10.294;2023-07-09T13:39:15;10.05;;;4.93;;
19231;SDS011;9750;48.730;10.294;2023-07-09T13:41:43;5.20;;;4.00;;
19231;SDS011;9750;48.730;10.294;2023-07-09T13:44:13;6.18;;;4.13;;
19231;SDS011;9750;48.730;10.294;2023-07-09T13:49:15;8.00;;;4.30;;
19231;SDS011;9750;48.730;10.294;2023-07-09T13:51:44;4.38;;;3.80;;
19231;SDS011;9750;48.730;10.294;2023-07-09T13:54:14;5.18;;;4.22;;
19231;SDS011;9750;48.730;10.294;2023-07-09T13:56:43;7.57;;;3.92;;
19231;SDS011;9750;48.730;10.294;2023-07-09T13:59:14;4.65;;;3.88;;
19231;SDS011;9750;48.730;10.294;2023-07-09T14:01:42;5.82;;;4.28;;
19231;SDS011;9750;48.730;10.294;2023-07-09T14:04:11;6.22;;;4.20;;
19231;SDS011;9750;48.730;10.294;2023-07-09T14:06:39;6.47;;;4.38;;
19231;SDS011;9750;48.730;10.294;2023-07-09T14:09:08;5.60;;;4.22;;
19231;SDS011;9750;48.730;10.294;2023-07-09T14:11:36;6.82;;;4.45;;
19231;SDS011;9750;48.730;10.294;2023-07-09T14:14:09;5.00;;;4.05;;
19231;SDS011;9750;48.730;10.294;2023-07-09T14:16:44;4.95;;;4.30;;
19231;SDS011;9750;48.730;10.294;2023-07-09T14:19:12;5.60;;;4.30;;
19231;SDS011;9750;48.730;10.294;2023-07-09T14:21:41;5.15;;;4.13;;
19231;SDS011;9750;48.730;10.294;2023-07-09T14:24:15;4.68;;;4.10;;
19231;SDS011;9750;48.730;10.294;2023-07-09T14:26:45;8.07;;;4.55;;
19231;SDS011;9750;48.730;10.294;2023-07-09T14:29:12;6.25;;;4.30;;
19231;SDS011;9750;48.730;10.294;2023-07-09T14:31:41;6.28;;;4.10;;
19231;SDS011;9750;48.730;10.294;2023-07-09T14:34:16;6.32;;;3.88;;
19231;SDS011;9750;48.730;10.294;2023-07-09T14:36:47;5.63;;;4.20;;
19231;SDS011;9750;48.730;10.294;2023-07-09T14:39:14;5.50;;;4.60;;
19231;SDS011;9750;48.730;10.294;2023-07-09T14:41:41;6.88;;;4.45;;
19231;SDS011;9750;48.730;10.294;2023-07-09T14:44:20;5.45;;;3.80;;
19231;SDS011;9750;48.730;10.294;2023-07-09T14:46:51;6.97;;;4.22;;
19231;SDS011;9750;48.730;10.294;2023-07-09T14:49:20;5.72;;;4.22;;
19231;SDS011;9750;48.730;10.294;2023-07-09T14:51:49;8.00;;;4.30;;
19231;SDS011;9750;48.730;10.294;2023-07-09T14:54:18;6.22;;;4.40;;
19231;SDS011;9750;48.730;10.294;2023-07-09T14:56:46;8.85;;;4.75;;
19231;SDS011;9750;48.730;10.294;2023-07-09T14:59:13;6.22;;;4.97;;
19231;SDS011;9750;48.730;10.294;2023-07-09T15:01:41;5.75;;;4.22;;
19231;SDS011;9750;48.730;10.294;2023-07-09T15:04:22;5.82;;;4.60;;
19231;SDS011;9750;48.730;10.294;2023-07-09T15:06:54;4.72;;;4.22;;
19231;SDS011;9750;48.730;10.294;2023-07-09T15:09:23;5.97;;;4.47;;
19231;SDS011;9750;48.730;10.294;2023-07-09T15:11:52;5.20;;;4.50;;
19231;SDS011;9750;48.730;10.294;2023-07-09T15:14:21;4.82;;;4.07;;
19231;SDS011;9750;48.730;10.294;2023-07-09T15:16:50;4.55;;;3.70;;
19231;SDS011;9750;48.730;10.294;2023-07-09T15:19:18;8.10;;;4.38;;
19231;SDS011;9750;48.730;10.294;2023-07-09T15:21:48;10.48;;;4.13;;
19231;SDS011;9750;48.730;10.294;2023-07-09T15:24:18;6.47;;;4.32;;